sensor_id;sensor_type;location;lat;lon;timestamp;P1;durP1;ratioP1;P2;durP2;ratioP2
4748;SDS011;2388;53.582;9.962;2022-10-31T00:00:44;22.03;;;14.70;;
4748;SDS011;2388;53.582;9.962;2022-10-31T00:03:10;21.97;;;13.23;;
4748;SDS011;2388;53.582;9.962;2022-10-31T00:05:35;22.13;;;13.47;;
4748;SDS011;2388;53.582;9.962;2022-10-31T00:08:04;25.53;;;13.30;;
4748;SDS011;2388;53.582;9.962;2022-10-31T00:10:30;22.83;;;12.60;;
4748;SDS011;2388;53.582;9.962;2022-10-31T00:12:55;29.17;;;12.97;;
4748;SDS011;2388;53.582;9.962;2022-10-31T00:15:21;20.10;;;12.63;;
4748;SDS011;2388;53.582;9.962;2022-10-31T00:17:46;19.90;;;12.80;;
4748;SDS011;2388;53.582;9.962;2022-10-31T00:20:12;23.33;;;14.17;;
4748;SDS011;2388;53.582;9.962;2022-10-31T00:22:37;24.67;;;13.00;;
4748;SDS011;2388;53.582;9.962;2022-10-31T00:25:03;27.03;;;13.50;;
4748;SDS011;2388;53.582;9.962;2022-10-31T00:27:28;21.90;;;13.20;;
4748;SDS011;2388;53.582;9.962;2022-10-31T00:29:54;20.50;;;13.40;;
4748;SDS011;2388;53.582;9.962;2022-10-31T00:32:19;23.67;;;13.17;;
4748;SDS011;2388;53.582;9.962;2022-10-31T00:34:45;20.93;;;13.30;;
4748;SDS011;2388;53.582;9.962;2022-10-31T00:37:10;21.50;;;13.07;;
4748;SDS011;2388;53.582;9.962;2022-10-31T00:39:36;24.73;;;13.70;;
4748;SDS011;2388;53.582;9.962;2022-10-31T00:42:01;21.07;;;12.77;;
4748;SDS011;2388;53.582;9.962;2022-10-31T00:44:27;22.60;;;13.33;;
4748;SDS011;2388;53.582;9.962;2022-10-31T00:46:52;18.83;;;13.10;;
4748;SDS011;2388;53.582;9.962;2022-10-31T00:49:18;16.77;;;12.33;;
4748;SDS011;2388;53.582;9.962;2022-10-31T00:51:43;17.87;;;12.63;;
4748;SDS011;2388;53.582;9.962;2022-10-31T00:54:08;20.37;;;13.30;;
4748;SDS011;2388;53.582;9.962;2022-10-31T00:56:34;25.87;;;13.30;;
4748;SDS011;2388;53.582;9.962;2022-10-31T00:58:59;32.33;;;14.57;;
4748;SDS011;2388;53.582;9.962;2022-10-31T01:01:25;17.13;;;13.30;;
4748;SDS011;2388;53.582;9.962;2022-10-31T01:03:50;20.00;;;13.77;;
4748;SDS011;2388;53.582;9.962;2022-10-31T01:06:16;22.77;;;13.73;;
4748;SDS011;2388;53.582;9.962;2022-10-31T01:08:41;22.10;;;14.27;;
4748;SDS011;2388;53.582;9.962;2022-10-31T01:11:11;21.27;;;14.73;;
4748;SDS011;2388;53.582;9.962;2022-10-31T01:13:39;19.10;;;13.60;;
4748;SDS011;2388;53.582;9.962;2022-10-31T01:16:05;21.07;;;15.00;;
4748;SDS011;2388;53.582;9.962;2022-10-31T01:18:33;23.47;;;14.13;;
4748;SDS011;2388;53.582;9.962;2022-10-31T01:20:59;24.90;;;14.90;;
4748;SDS011;2388;53.582;9.962;2022-10-31T01:23:26;34.03;;;16.57;;
4748;SDS011;2388;53.582;9.962;2022-10-31T01:25:59;34.20;;;16.17;;
4748;SDS011;2388;53.582;9.962;2022-10-31T01:28:25;21.50;;;15.73;;
4748;SDS011;2388;53.582;9.962;2022-10-31T01:30:50;24.93;;;14.60;;
4748;SDS011;2388;53.582;9.962;2022-10-31T01:33:16;23.80;;;15.07;;
4748;SDS011;2388;53.582;9.962;2022-10-31T01:35:41;25.33;;;14.67;;
4748;SDS011;2388;53.582;9.962;2022-10-31T01:38:07;24.27;;;15.13;;
4748;SDS011;2388;53.582;9.962;2022-10-31T01:40:33;20.80;;;14.93;;
4748;SDS011;2388;53.582;9.962;2022-10-31T01:42:58;22.83;;;13.73;;
4748;SDS011;2388;53.582;9.962;2022-10-31T01:45:23;23.20;;;14.73;;
4748;SDS011;2388;53.582;9.962;2022-10-31T01:47:49;26.67;;;15.63;;
4748;SDS011;2388;53.582;9.962;2022-10-31T01:50:20;22.60;;;15.33;;
4748;SDS011;2388;53.582;9.962;2022-10-31T01:52:56;21.40;;;14.90;;
4748;SDS011;2388;53.582;9.962;2022-10-31T01:57:54;27.80;;;16.37;;
4748;SDS011;2388;53.582;9.962;2022-10-31T02:00:22;23.77;;;15.87;;
4748;SDS011;2388;53.582;9.962;2022-10-31T02:02:48;27.90;;;15.60;;
4748;SDS011;2388;53.582;9.962;2022-10-31T02:05:18;29.13;;;15.80;;
4748;SDS011;2388;53.582;9.962;2022-10-31T02:10:49;23.10;;;15.07;;
4748;SDS011;2388;53.582;9.962;2022-10-31T02:13:15;25.47;;;15.63;;
4748;SDS011;2388;53.582;9.962;2022-10-31T02:15:41;21.40;;;15.87;;
4748;SDS011;2388;53.582;9.962;2022-10-31T02:18:09;25.90;;;17.37;;
4748;SDS011;2388;53.582;9.962;2022-10-31T02:20:47;25.73;;;15.80;;
4748;SDS011;2388;53.582;9.962;2022-10-31T02:23:27;21.70;;;16.03;;
4748;SDS011;2388;53.582;9.962;2022-10-31T02:29:23;35.70;;;18.17;;
4748;SDS011;2388;53.582;9.962;2022-10-31T02:32:20;26.40;;;17.50;;
4748;SDS011;2388;53.582;9.962;2022-10-31T02:34:56;25.80;;;15.80;;
4748;SDS011;2388;53.582;9.962;2022-10-31T02:37:37;29.57;;;15.57;;
4748;SDS011;2388;53.582;9.962;2022-10-31T02:40:21;27.80;;;15.80;;
4748;SDS011;2388;53.582;9.962;2022-10-31T02:42:50;23.27;;;15.50;;
4748;SDS011;2388;53.582;9.962;2022-10-31T02:45:30;26.07;;;16.30;;
4748;SDS011;2388;53.582;9.962;2022-10-31T02:48:08;22.80;;;15.63;;
4748;SDS011;2388;53.582;9.962;2022-10-31T02:50:38;27.03;;;17.07;;
4748;SDS011;2388;53.582;9.962;2022-10-31T02:53:07;22.53;;;14.97;;
4748;SDS011;2388;53.582;9.962;2022-10-31T02:58:05;21.17;;;14.90;;
4748;SDS011;2388;53.582;9.962;2022-10-31T03:00:37;25.00;;;15.53;;
4748;SDS011;2388;53.582;9.962;2022-10-31T03:06:14;24.23;;;15.87;;
4748;SDS011;2388;53.582;9.962;2022-10-31T03:08:56;32.43;;;16.37;;
4748;SDS011;2388;53.582;9.962;2022-10-31T03:11:32;24.60;;;15.30;;
4748;SDS011;2388;53.582;9.962;2022-10-31T03:14:11;21.93;;;15.53;;
4748;SDS011;2388;53.582;9.962;2022-10-31T03:19:12;25.73;;;16.60;;
4748;SDS011;2388;53.582;9.962;2022-10-31T03:21:58;23.77;;;16.30;;
4748;SDS011;2388;53.582;9.962;2022-10-31T03:24:30;29.60;;;15.40;;
4748;SDS011;2388;53.582;9.962;2022-10-31T03:27:00;22.47;;;14.57;;
4748;SDS011;2388;53.582;9.962;2022-10-31T03:29:30;33.10;;;16.53;;
4748;SDS011;2388;53.582;9.962;2022-10-31T03:32:06;21.93;;;14.93;;
4748;SDS011;2388;53.582;9.962;2022-10-31T03:34:35;30.90;;;16.87;;
4748;SDS011;2388;53.582;9.962;2022-10-31T03:37:03;25.40;;;16.70;;
4748;SDS011;2388;53.582;9.962;2022-10-31T03:39:32;33.57;;;16.60;;
4748;SDS011;2388;53.582;9.962;2022-10-31T03:42:04;27.90;;;16.87;;
4748;SDS011;2388;53.582;9.962;2022-10-31T03:44:32;27.53;;;17.70;;
4748;SDS011;2388;53.582;9.962;2022-10-31T03:46:59;24.63;;;15.97;;
4748;SDS011;2388;53.582;9.962;2022-10-31T03:49:26;28.20;;;17.43;;
4748;SDS011;2388;53.582;9.962;2022-10-31T03:51:54;25.60;;;17.13;;
4748;SDS011;2388;53.582;9.962;2022-10-31T03:54:46;25.57;;;17.47;;
4748;SDS011;2388;53.582;9.962;2022-10-31T03:57:24;27.20;;;16.20;;
4748;SDS011;2388;53.582;9.962;2022-10-31T03:59:58;31.80;;;17.10;;
4748;SDS011;2388;53.582;9.962;2022-10-31T04:02:29;24.33;;;17.00;;
4748;SDS011;2388;53.582;9.962;2022-10-31T04:04:57;28.77;;;18.93;;
4748;SDS011;2388;53.582;9.962;2022-10-31T04:07:23;35.70;;;20.17;;
4748;SDS011;2388;53.582;9.962;2022-10-31T04:09:53;39.20;;;20.90;;
4748;SDS011;2388;53.582;9.962;2022-10-31T04:12:20;29.00;;;17.80;;
4748;SDS011;2388;53.582;9.962;2022-10-31T04:14:48;27.93;;;17.80;;
4748;SDS011;2388;53.582;9.962;2022-10-31T04:17:16;33.70;;;18.50;;
4748;SDS011;2388;53.582;9.962;2022-10-31T04:19:43;35.67;;;18.90;;
4748;SDS011;2388;53.582;9.962;2022-10-31T04:22:09;32.37;;;18.77;;
4748;SDS011;2388;53.582;9.962;2022-10-31T04:24:36;32.67;;;18.10;;
4748;SDS011;2388;53.582;9.962;2022-10-31T04:27:04;29.13;;;17.90;;
4748;SDS011;2388;53.582;9.962;2022-10-31T04:29:29;27.40;;;18.07;;
4748;SDS011;2388;53.582;9.962;2022-10-31T04:31:55;28.63;;;20.20;;
4748;SDS011;2388;53.582;9.962;2022-10-31T04:34:20;35.83;;;19.93;;
4748;SDS011;2388;53.582;9.962;2022-10-31T04:36:46;30.77;;;18.60;;
4748;SDS011;2388;53.582;9.962;2022-10-31T04:39:11;29.03;;;19.07;;
4748;SDS011;2388;53.582;9.962;2022-10-31T04:41:37;30.47;;;19.27;;
4748;SDS011;2388;53.582;9.962;2022-10-31T04:44:02;36.53;;;18.47;;
4748;SDS011;2388;53.582;9.962;2022-10-31T04:46:28;39.07;;;19.23;;
4748;SDS011;2388;53.582;9.962;2022-10-31T04:48:53;33.63;;;20.27;;
4748;SDS011;2388;53.582;9.962;2022-10-31T04:51:19;30.30;;;19.07;;
4748;SDS011;2388;53.582;9.962;2022-10-31T04:53:44;32.63;;;18.07;;
4748;SDS011;2388;53.582;9.962;2022-10-31T04:56:10;31.90;;;18.20;;
4748;SDS011;2388;53.582;9.962;2022-10-31T04:58:35;30.50;;;19.13;;
4748;SDS011;2388;53.582;9.962;2022-10-31T05:01:01;31.97;;;19.40;;
4748;SDS011;2388;53.582;9.962;2022-10-31T05:03:26;32.20;;;18.83;;
4748;SDS011;2388;53.582;9.962;2022-10-31T05:05:52;26.07;;;17.20;;
4748;SDS011;2388;53.582;9.962;2022-10-31T05:08:17;31.97;;;19.37;;
4748;SDS011;2388;53.582;9.962;2022-10-31T05:10:43;26.80;;;16.13;;
4748;SDS011;2388;53.582;9.962;2022-10-31T05:13:08;30.97;;;18.70;;
4748;SDS011;2388;53.582;9.962;2022-10-31T05:15:35;32.20;;;18.70;;
4748;SDS011;2388;53.582;9.962;2022-10-31T05:18:01;33.50;;;19.10;;
4748;SDS011;2388;53.582;9.962;2022-10-31T05:20:27;31.70;;;18.73;;
4748;SDS011;2388;53.582;9.962;2022-10-31T05:22:55;31.23;;;18.17;;
4748;SDS011;2388;53.582;9.962;2022-10-31T05:25:22;35.33;;;18.77;;
4748;SDS011;2388;53.582;9.962;2022-10-31T05:27:49;28.97;;;18.00;;
4748;SDS011;2388;53.582;9.962;2022-10-31T05:30:20;26.80;;;17.20;;
4748;SDS011;2388;53.582;9.962;2022-10-31T05:32:49;29.20;;;17.00;;
4748;SDS011;2388;53.582;9.962;2022-10-31T05:35:19;29.10;;;17.53;;
4748;SDS011;2388;53.582;9.962;2022-10-31T05:37:46;33.67;;;18.70;;
4748;SDS011;2388;53.582;9.962;2022-10-31T05:40:13;29.43;;;18.57;;
4748;SDS011;2388;53.582;9.962;2022-10-31T05:42:40;27.70;;;17.97;;
4748;SDS011;2388;53.582;9.962;2022-10-31T05:45:07;30.73;;;17.87;;
4748;SDS011;2388;53.582;9.962;2022-10-31T05:47:33;30.37;;;18.70;;
4748;SDS011;2388;53.582;9.962;2022-10-31T05:49:59;26.53;;;17.33;;
4748;SDS011;2388;53.582;9.962;2022-10-31T05:52:24;32.67;;;19.97;;
4748;SDS011;2388;53.582;9.962;2022-10-31T05:54:50;34.67;;;17.43;;
4748;SDS011;2388;53.582;9.962;2022-10-31T05:57:15;31.10;;;17.23;;
4748;SDS011;2388;53.582;9.962;2022-10-31T05:59:41;36.10;;;18.47;;
4748;SDS011;2388;53.582;9.962;2022-10-31T06:02:06;31.63;;;17.40;;
4748;SDS011;2388;53.582;9.962;2022-10-31T06:04:32;33.97;;;18.50;;
4748;SDS011;2388;53.582;9.962;2022-10-31T06:06:57;34.67;;;19.90;;
4748;SDS011;2388;53.582;9.962;2022-10-31T06:09:23;33.83;;;19.73;;
4748;SDS011;2388;53.582;9.962;2022-10-31T06:11:48;32.43;;;19.90;;
4748;SDS011;2388;53.582;9.962;2022-10-31T06:14:13;39.00;;;20.57;;
4748;SDS011;2388;53.582;9.962;2022-10-31T06:16:39;34.30;;;18.97;;
4748;SDS011;2388;53.582;9.962;2022-10-31T06:19:05;33.80;;;19.10;;
4748;SDS011;2388;53.582;9.962;2022-10-31T06:21:30;32.40;;;18.93;;
4748;SDS011;2388;53.582;9.962;2022-10-31T06:23:56;33.67;;;17.90;;
4748;SDS011;2388;53.582;9.962;2022-10-31T06:26:21;26.30;;;18.20;;
4748;SDS011;2388;53.582;9.962;2022-10-31T06:28:47;41.10;;;23.63;;
4748;SDS011;2388;53.582;9.962;2022-10-31T06:31:12;29.83;;;19.67;;
4748;SDS011;2388;53.582;9.962;2022-10-31T06:33:38;29.23;;;17.30;;
4748;SDS011;2388;53.582;9.962;2022-10-31T06:36:06;28.97;;;17.27;;
4748;SDS011;2388;53.582;9.962;2022-10-31T06:38:32;27.73;;;15.80;;
4748;SDS011;2388;53.582;9.962;2022-10-31T06:40:57;26.57;;;17.00;;
4748;SDS011;2388;53.582;9.962;2022-10-31T06:43:26;27.60;;;16.40;;
4748;SDS011;2388;53.582;9.962;2022-10-31T06:45:51;29.93;;;17.10;;
4748;SDS011;2388;53.582;9.962;2022-10-31T06:48:17;29.10;;;15.77;;
4748;SDS011;2388;53.582;9.962;2022-10-31T06:50:42;29.90;;;16.50;;
4748;SDS011;2388;53.582;9.962;2022-10-31T06:53:08;36.60;;;19.47;;
4748;SDS011;2388;53.582;9.962;2022-10-31T06:55:33;39.77;;;19.70;;
4748;SDS011;2388;53.582;9.962;2022-10-31T06:57:59;38.50;;;19.90;;
4748;SDS011;2388;53.582;9.962;2022-10-31T07:00:26;31.63;;;20.10;;
4748;SDS011;2388;53.582;9.962;2022-10-31T07:05:18;30.47;;;19.43;;
4748;SDS011;2388;53.582;9.962;2022-10-31T07:07:44;28.63;;;17.73;;
4748;SDS011;2388;53.582;9.962;2022-10-31T07:10:09;26.20;;;17.00;;
4748;SDS011;2388;53.582;9.962;2022-10-31T07:12:35;24.03;;;16.53;;
4748;SDS011;2388;53.582;9.962;2022-10-31T07:15:00;29.23;;;17.20;;
4748;SDS011;2388;53.582;9.962;2022-10-31T07:17:25;23.93;;;16.30;;
4748;SDS011;2388;53.582;9.962;2022-10-31T07:19:51;19.60;;;14.93;;
4748;SDS011;2388;53.582;9.962;2022-10-31T07:22:16;19.33;;;14.73;;
4748;SDS011;2388;53.582;9.962;2022-10-31T07:24:42;17.87;;;13.10;;
4748;SDS011;2388;53.582;9.962;2022-10-31T07:27:07;18.10;;;12.53;;
4748;SDS011;2388;53.582;9.962;2022-10-31T07:29:33;17.60;;;13.70;;
4748;SDS011;2388;53.582;9.962;2022-10-31T07:31:58;16.20;;;13.50;;
4748;SDS011;2388;53.582;9.962;2022-10-31T07:34:24;15.93;;;13.60;;
4748;SDS011;2388;53.582;9.962;2022-10-31T07:36:50;14.97;;;13.03;;
4748;SDS011;2388;53.582;9.962;2022-10-31T07:39:15;17.47;;;12.87;;
4748;SDS011;2388;53.582;9.962;2022-10-31T07:41:41;24.07;;;18.03;;
4748;SDS011;2388;53.582;9.962;2022-10-31T07:44:06;22.93;;;14.23;;
4748;SDS011;2388;53.582;9.962;2022-10-31T07:46:32;21.43;;;13.17;;
4748;SDS011;2388;53.582;9.962;2022-10-31T07:48:58;17.40;;;13.30;;
4748;SDS011;2388;53.582;9.962;2022-10-31T07:51:23;18.60;;;14.90;;
4748;SDS011;2388;53.582;9.962;2022-10-31T07:53:49;18.30;;;13.37;;
4748;SDS011;2388;53.582;9.962;2022-10-31T07:56:14;17.90;;;14.13;;
4748;SDS011;2388;53.582;9.962;2022-10-31T07:58:40;17.83;;;14.00;;
4748;SDS011;2388;53.582;9.962;2022-10-31T08:01:05;17.90;;;12.87;;
4748;SDS011;2388;53.582;9.962;2022-10-31T08:03:31;16.60;;;13.23;;
4748;SDS011;2388;53.582;9.962;2022-10-31T08:05:56;18.80;;;12.23;;
4748;SDS011;2388;53.582;9.962;2022-10-31T08:08:22;21.47;;;14.03;;
4748;SDS011;2388;53.582;9.962;2022-10-31T08:10:49;44.20;;;28.73;;
4748;SDS011;2388;53.582;9.962;2022-10-31T08:13:14;34.60;;;22.80;;
4748;SDS011;2388;53.582;9.962;2022-10-31T08:15:40;29.60;;;21.93;;
4748;SDS011;2388;53.582;9.962;2022-10-31T08:18:10;22.13;;;16.20;;
4748;SDS011;2388;53.582;9.962;2022-10-31T08:20:39;15.93;;;13.10;;
4748;SDS011;2388;53.582;9.962;2022-10-31T08:23:06;18.67;;;11.73;;
4748;SDS011;2388;53.582;9.962;2022-10-31T08:25:32;18.30;;;12.10;;
4748;SDS011;2388;53.582;9.962;2022-10-31T08:27:58;13.17;;;11.03;;
4748;SDS011;2388;53.582;9.962;2022-10-31T08:30:26;14.57;;;11.70;;
4748;SDS011;2388;53.582;9.962;2022-10-31T08:35:29;16.03;;;12.77;;
4748;SDS011;2388;53.582;9.962;2022-10-31T08:37:55;17.13;;;11.80;;
4748;SDS011;2388;53.582;9.962;2022-10-31T08:40:22;15.97;;;11.60;;
4748;SDS011;2388;53.582;9.962;2022-10-31T08:42:54;16.57;;;13.20;;
4748;SDS011;2388;53.582;9.962;2022-10-31T08:45:21;17.77;;;13.23;;
4748;SDS011;2388;53.582;9.962;2022-10-31T08:47:46;16.07;;;11.53;;
4748;SDS011;2388;53.582;9.962;2022-10-31T08:50:12;13.80;;;11.53;;
4748;SDS011;2388;53.582;9.962;2022-10-31T08:52:37;16.70;;;12.47;;
4748;SDS011;2388;53.582;9.962;2022-10-31T08:55:03;16.07;;;12.23;;
4748;SDS011;2388;53.582;9.962;2022-10-31T08:57:29;17.83;;;12.03;;
4748;SDS011;2388;53.582;9.962;2022-10-31T08:59:54;15.63;;;12.17;;
4748;SDS011;2388;53.582;9.962;2022-10-31T09:02:20;19.07;;;12.47;;
4748;SDS011;2388;53.582;9.962;2022-10-31T09:04:45;19.40;;;12.87;;
4748;SDS011;2388;53.582;9.962;2022-10-31T09:07:11;16.73;;;12.00;;
4748;SDS011;2388;53.582;9.962;2022-10-31T09:09:36;22.40;;;17.00;;
4748;SDS011;2388;53.582;9.962;2022-10-31T09:12:02;17.40;;;13.83;;
4748;SDS011;2388;53.582;9.962;2022-10-31T09:14:27;20.73;;;13.20;;
4748;SDS011;2388;53.582;9.962;2022-10-31T09:16:53;15.53;;;11.63;;
4748;SDS011;2388;53.582;9.962;2022-10-31T09:19:18;16.97;;;12.87;;
4748;SDS011;2388;53.582;9.962;2022-10-31T09:21:44;15.87;;;11.83;;
4748;SDS011;2388;53.582;9.962;2022-10-31T09:24:09;14.47;;;11.00;;
4748;SDS011;2388;53.582;9.962;2022-10-31T09:26:35;17.20;;;13.10;;
4748;SDS011;2388;53.582;9.962;2022-10-31T09:29:00;15.63;;;11.43;;
4748;SDS011;2388;53.582;9.962;2022-10-31T09:31:26;18.80;;;11.10;;
4748;SDS011;2388;53.582;9.962;2022-10-31T09:33:52;19.47;;;9.73;;
4748;SDS011;2388;53.582;9.962;2022-10-31T09:36:19;16.90;;;11.57;;
4748;SDS011;2388;53.582;9.962;2022-10-31T09:38:44;20.37;;;13.07;;
4748;SDS011;2388;53.582;9.962;2022-10-31T09:49:24;26.80;;;18.30;;
4748;SDS011;2388;53.582;9.962;2022-10-31T09:52:17;22.30;;;17.23;;
4748;SDS011;2388;53.582;9.962;2022-10-31T09:54:46;26.10;;;16.37;;
4748;SDS011;2388;53.582;9.962;2022-10-31T09:57:19;19.83;;;14.33;;
4748;SDS011;2388;53.582;9.962;2022-10-31T09:59:50;21.00;;;14.00;;
4748;SDS011;2388;53.582;9.962;2022-10-31T10:02:17;17.77;;;14.00;;
4748;SDS011;2388;53.582;9.962;2022-10-31T10:04:53;21.40;;;13.60;;
4748;SDS011;2388;53.582;9.962;2022-10-31T10:07:49;17.30;;;13.03;;
4748;SDS011;2388;53.582;9.962;2022-10-31T10:10:29;19.17;;;12.50;;
4748;SDS011;2388;53.582;9.962;2022-10-31T10:13:08;20.17;;;13.90;;
4748;SDS011;2388;53.582;9.962;2022-10-31T10:15:55;19.70;;;13.60;;
4748;SDS011;2388;53.582;9.962;2022-10-31T10:18:46;18.53;;;12.27;;
4748;SDS011;2388;53.582;9.962;2022-10-31T10:24:49;18.87;;;12.17;;
4748;SDS011;2388;53.582;9.962;2022-10-31T10:30:29;18.73;;;12.47;;
4748;SDS011;2388;53.582;9.962;2022-10-31T10:33:12;18.53;;;12.63;;
4748;SDS011;2388;53.582;9.962;2022-10-31T10:35:50;16.57;;;10.67;;
4748;SDS011;2388;53.582;9.962;2022-10-31T10:38:23;21.83;;;11.77;;
4748;SDS011;2388;53.582;9.962;2022-10-31T10:40:53;21.43;;;13.57;;
4748;SDS011;2388;53.582;9.962;2022-10-31T10:46:00;14.53;;;11.20;;
4748;SDS011;2388;53.582;9.962;2022-10-31T10:51:38;18.30;;;12.40;;
4748;SDS011;2388;53.582;9.962;2022-10-31T10:59:30;18.63;;;11.73;;
4748;SDS011;2388;53.582;9.962;2022-10-31T11:01:56;20.43;;;11.90;;
4748;SDS011;2388;53.582;9.962;2022-10-31T11:04:33;16.33;;;12.47;;
4748;SDS011;2388;53.582;9.962;2022-10-31T11:07:00;18.50;;;10.43;;
4748;SDS011;2388;53.582;9.962;2022-10-31T11:09:29;18.07;;;12.23;;
4748;SDS011;2388;53.582;9.962;2022-10-31T11:11:54;40.63;;;28.77;;
4748;SDS011;2388;53.582;9.962;2022-10-31T11:14:21;29.57;;;20.37;;
4748;SDS011;2388;53.582;9.962;2022-10-31T11:16:49;19.87;;;14.20;;
4748;SDS011;2388;53.582;9.962;2022-10-31T11:19:33;14.20;;;11.33;;
4748;SDS011;2388;53.582;9.962;2022-10-31T11:22:12;17.57;;;11.50;;
4748;SDS011;2388;53.582;9.962;2022-10-31T11:24:42;16.37;;;10.63;;
4748;SDS011;2388;53.582;9.962;2022-10-31T11:27:21;17.53;;;11.67;;
4748;SDS011;2388;53.582;9.962;2022-10-31T11:29:51;22.53;;;13.37;;
4748;SDS011;2388;53.582;9.962;2022-10-31T11:32:19;17.63;;;13.67;;
4748;SDS011;2388;53.582;9.962;2022-10-31T11:34:54;22.23;;;15.60;;
4748;SDS011;2388;53.582;9.962;2022-10-31T11:37:27;21.63;;;15.17;;
4748;SDS011;2388;53.582;9.962;2022-10-31T11:39:56;21.73;;;14.23;;
4748;SDS011;2388;53.582;9.962;2022-10-31T11:42:25;26.77;;;16.90;;
4748;SDS011;2388;53.582;9.962;2022-10-31T11:44:52;19.27;;;14.47;;
4748;SDS011;2388;53.582;9.962;2022-10-31T11:47:29;22.43;;;16.40;;
4748;SDS011;2388;53.582;9.962;2022-10-31T11:49:57;22.10;;;15.47;;
4748;SDS011;2388;53.582;9.962;2022-10-31T11:52:28;19.20;;;15.90;;
4748;SDS011;2388;53.582;9.962;2022-10-31T11:55:00;26.50;;;18.67;;
4748;SDS011;2388;53.582;9.962;2022-10-31T11:57:49;28.40;;;19.63;;
4748;SDS011;2388;53.582;9.962;2022-10-31T12:00:24;33.43;;;20.97;;
4748;SDS011;2388;53.582;9.962;2022-10-31T12:03:18;34.70;;;22.03;;
4748;SDS011;2388;53.582;9.962;2022-10-31T12:06:04;34.20;;;21.83;;
4748;SDS011;2388;53.582;9.962;2022-10-31T12:08:37;35.27;;;21.60;;
4748;SDS011;2388;53.582;9.962;2022-10-31T12:13:51;30.23;;;21.20;;
4748;SDS011;2388;53.582;9.962;2022-10-31T12:16:53;70.57;;;43.97;;
4748;SDS011;2388;53.582;9.962;2022-10-31T12:19:31;52.60;;;33.73;;
4748;SDS011;2388;53.582;9.962;2022-10-31T12:25:13;33.87;;;22.00;;
4748;SDS011;2388;53.582;9.962;2022-10-31T12:33:28;36.77;;;21.40;;
4748;SDS011;2388;53.582;9.962;2022-10-31T12:41:23;32.30;;;21.43;;
4748;SDS011;2388;53.582;9.962;2022-10-31T12:43:57;40.20;;;21.80;;
4748;SDS011;2388;53.582;9.962;2022-10-31T12:49:41;33.80;;;19.40;;
4748;SDS011;2388;53.582;9.962;2022-10-31T12:57:45;33.70;;;19.80;;
4748;SDS011;2388;53.582;9.962;2022-10-31T13:00:15;33.80;;;20.43;;
4748;SDS011;2388;53.582;9.962;2022-10-31T13:05:26;106.37;;;65.50;;
4748;SDS011;2388;53.582;9.962;2022-10-31T13:08:00;61.37;;;39.00;;
4748;SDS011;2388;53.582;9.962;2022-10-31T13:10:45;54.10;;;33.43;;
4748;SDS011;2388;53.582;9.962;2022-10-31T13:13:18;40.20;;;27.23;;
4748;SDS011;2388;53.582;9.962;2022-10-31T13:15:55;41.80;;;25.23;;
4748;SDS011;2388;53.582;9.962;2022-10-31T13:18:29;42.00;;;23.63;;
4748;SDS011;2388;53.582;9.962;2022-10-31T13:21:03;31.30;;;20.73;;
4748;SDS011;2388;53.582;9.962;2022-10-31T13:23:35;28.90;;;20.33;;
4748;SDS011;2388;53.582;9.962;2022-10-31T13:26:10;32.40;;;19.27;;
4748;SDS011;2388;53.582;9.962;2022-10-31T13:28:40;26.30;;;17.70;;
4748;SDS011;2388;53.582;9.962;2022-10-31T13:31:11;25.20;;;17.00;;
4748;SDS011;2388;53.582;9.962;2022-10-31T13:33:41;23.23;;;14.60;;
4748;SDS011;2388;53.582;9.962;2022-10-31T13:39:02;19.60;;;13.40;;
4748;SDS011;2388;53.582;9.962;2022-10-31T13:41:54;26.03;;;17.83;;
4748;SDS011;2388;53.582;9.962;2022-10-31T13:44:30;27.13;;;17.30;;
4748;SDS011;2388;53.582;9.962;2022-10-31T13:47:00;25.73;;;16.27;;
4748;SDS011;2388;53.582;9.962;2022-10-31T13:54:46;27.07;;;16.53;;
4748;SDS011;2388;53.582;9.962;2022-10-31T13:57:15;28.40;;;16.70;;
4748;SDS011;2388;53.582;9.962;2022-10-31T14:00:00;27.43;;;16.60;;
4748;SDS011;2388;53.582;9.962;2022-10-31T14:02:31;19.30;;;14.60;;
4748;SDS011;2388;53.582;9.962;2022-10-31T14:05:06;22.30;;;16.03;;
4748;SDS011;2388;53.582;9.962;2022-10-31T14:07:44;40.60;;;25.53;;
4748;SDS011;2388;53.582;9.962;2022-10-31T14:13:14;21.33;;;14.83;;
4748;SDS011;2388;53.582;9.962;2022-10-31T14:15:42;16.10;;;12.37;;
4748;SDS011;2388;53.582;9.962;2022-10-31T14:18:24;16.87;;;10.63;;
4748;SDS011;2388;53.582;9.962;2022-10-31T14:21:01;15.57;;;12.17;;
4748;SDS011;2388;53.582;9.962;2022-10-31T14:23:39;18.50;;;12.50;;
4748;SDS011;2388;53.582;9.962;2022-10-31T14:26:51;16.80;;;12.70;;
4748;SDS011;2388;53.582;9.962;2022-10-31T14:28:51;14.13;;;11.60;;
4748;SDS011;2388;53.582;9.962;2022-10-31T14:34:03;17.60;;;12.00;;
4748;SDS011;2388;53.582;9.962;2022-10-31T14:39:16;15.60;;;10.63;;
4748;SDS011;2388;53.582;9.962;2022-10-31T14:42:05;17.00;;;10.53;;
4748;SDS011;2388;53.582;9.962;2022-10-31T14:45:01;11.80;;;10.23;;
4748;SDS011;2388;53.582;9.962;2022-10-31T14:47:56;13.90;;;10.43;;
4748;SDS011;2388;53.582;9.962;2022-10-31T14:50:48;17.87;;;10.70;;
4748;SDS011;2388;53.582;9.962;2022-10-31T14:53:24;17.13;;;10.97;;
4748;SDS011;2388;53.582;9.962;2022-10-31T14:55:54;15.60;;;11.20;;
4748;SDS011;2388;53.582;9.962;2022-10-31T14:58:22;17.87;;;11.67;;
4748;SDS011;2388;53.582;9.962;2022-10-31T15:00:54;19.10;;;11.77;;
4748;SDS011;2388;53.582;9.962;2022-10-31T15:03:23;24.73;;;14.57;;
4748;SDS011;2388;53.582;9.962;2022-10-31T15:05:54;21.30;;;12.10;;
4748;SDS011;2388;53.582;9.962;2022-10-31T15:08:39;18.67;;;12.60;;
4748;SDS011;2388;53.582;9.962;2022-10-31T15:11:22;22.13;;;12.70;;
4748;SDS011;2388;53.582;9.962;2022-10-31T15:13:51;16.53;;;12.20;;
4748;SDS011;2388;53.582;9.962;2022-10-31T15:16:19;23.13;;;14.20;;
4748;SDS011;2388;53.582;9.962;2022-10-31T15:18:49;23.03;;;11.63;;
4748;SDS011;2388;53.582;9.962;2022-10-31T15:21:19;16.80;;;11.93;;
4748;SDS011;2388;53.582;9.962;2022-10-31T15:23:46;19.50;;;12.10;;
4748;SDS011;2388;53.582;9.962;2022-10-31T15:26:20;23.53;;;12.53;;
4748;SDS011;2388;53.582;9.962;2022-10-31T15:31:37;21.17;;;11.60;;
4748;SDS011;2388;53.582;9.962;2022-10-31T15:34:04;12.33;;;10.57;;
4748;SDS011;2388;53.582;9.962;2022-10-31T15:36:37;19.10;;;12.10;;
4748;SDS011;2388;53.582;9.962;2022-10-31T15:39:02;14.03;;;9.70;;
4748;SDS011;2388;53.582;9.962;2022-10-31T15:44:12;15.53;;;9.80;;
4748;SDS011;2388;53.582;9.962;2022-10-31T15:47:00;15.67;;;10.60;;
4748;SDS011;2388;53.582;9.962;2022-10-31T15:49:40;20.17;;;12.10;;
4748;SDS011;2388;53.582;9.962;2022-10-31T15:52:28;17.97;;;11.53;;
4748;SDS011;2388;53.582;9.962;2022-10-31T15:55:20;15.23;;;10.63;;
4748;SDS011;2388;53.582;9.962;2022-10-31T15:57:50;18.67;;;13.17;;
4748;SDS011;2388;53.582;9.962;2022-10-31T16:00:22;16.20;;;11.33;;
4748;SDS011;2388;53.582;9.962;2022-10-31T16:10:54;17.63;;;12.53;;
4748;SDS011;2388;53.582;9.962;2022-10-31T16:13:23;21.70;;;13.60;;
4748;SDS011;2388;53.582;9.962;2022-10-31T16:15:56;19.90;;;13.23;;
4748;SDS011;2388;53.582;9.962;2022-10-31T16:18:27;18.10;;;12.90;;
4748;SDS011;2388;53.582;9.962;2022-10-31T16:20:55;21.63;;;13.40;;
4748;SDS011;2388;53.582;9.962;2022-10-31T16:23:21;19.23;;;12.57;;
4748;SDS011;2388;53.582;9.962;2022-10-31T16:25:49;26.40;;;12.93;;
4748;SDS011;2388;53.582;9.962;2022-10-31T16:28:17;21.27;;;12.50;;
4748;SDS011;2388;53.582;9.962;2022-10-31T16:30:45;17.53;;;11.07;;
4748;SDS011;2388;53.582;9.962;2022-10-31T16:33:27;15.33;;;11.50;;
4748;SDS011;2388;53.582;9.962;2022-10-31T16:36:01;19.60;;;10.90;;
4748;SDS011;2388;53.582;9.962;2022-10-31T16:38:52;19.57;;;11.00;;
4748;SDS011;2388;53.582;9.962;2022-10-31T16:41:21;17.97;;;10.47;;
4748;SDS011;2388;53.582;9.962;2022-10-31T16:43:47;19.83;;;12.73;;
4748;SDS011;2388;53.582;9.962;2022-10-31T16:46:26;16.10;;;11.17;;
4748;SDS011;2388;53.582;9.962;2022-10-31T16:48:52;19.87;;;11.97;;
4748;SDS011;2388;53.582;9.962;2022-10-31T16:51:18;21.70;;;12.70;;